»·PEaware :: WAT388 KCMA-KSAN

WAT388 :: KCMA-KSAN

FLIGHT INFORMATION

Flight Status: Arrived
Operator:
Walker Air Transport
More flights by this operator :: More flights under this callsign
Pilot: Jacob A. (30091)
Aircraft: MOONEY M-20 201 202 205 220 ATS MSE
(M20P)
More flights by this aircraft type
Origin: KCMA Camarillo
United States
Destination: KSAN San Diego Intl-Lindbergh
United States
More flights between these airports :: More routes between these airports
Route: V23 LAX V25
File this flight plan on PilotEdge
Remarks: Coastal Route
Altitude:
(Current/Filed)
5,500ft
Speed:
(Current/Filed)
165kts
Departed: 24-Oct-20 10:53 AM
Arrived: 24-Oct-20 11:51 AM
Distance/Time
Traveled:
131nm/0:57
Distance/Time
To Go:
Arrived

Flight Plot

Page will automatically refresh every two minutes.

Flight plan parsing failed; only flown route is shown


Map Options




Map Legend


Flown Route
Filed Route
Departure Airport
Arrival Airport
Navaid (VOR, NDB)
Fix

Horizontal Profiles

Position Reports

Time Latitude Longitude Heading Altitude Ground
Speed
24-Oct-20 10:32 34.210687 -119.092575 192 71ft 0kts
24-Oct-20 10:33 34.210687 -119.092575 192 71ft 0kts
24-Oct-20 10:34 34.210687 -119.092575 192 71ft 0kts
24-Oct-20 10:35 34.210687 -119.092575 192 71ft 0kts
24-Oct-20 10:36 34.210687 -119.092575 192 71ft 0kts
24-Oct-20 10:37 34.210687 -119.092575 192 71ft 0kts
24-Oct-20 10:38 34.210687 -119.092575 192 71ft 0kts
24-Oct-20 10:39 34.210687 -119.092575 192 71ft 0kts
24-Oct-20 10:40 34.210687 -119.092575 192 71ft 0kts
24-Oct-20 10:41 34.210687 -119.092575 192 71ft 0kts
24-Oct-20 10:42 34.210692 -119.092002 27 72ft 0kts
24-Oct-20 10:43 34.210692 -119.092002 27 72ft 0kts
24-Oct-20 10:44 34.210692 -119.092002 27 72ft 0kts
24-Oct-20 10:45 34.210692 -119.092002 27 72ft 0kts
24-Oct-20 10:46 34.210975 -119.089839 90 77ft 13kts
24-Oct-20 10:47 34.210950 -119.084744 82 80ft 10kts
24-Oct-20 10:48 34.212962 -119.084605 0 78ft 0kts
24-Oct-20 10:49 34.212962 -119.084605 0 78ft 0kts
24-Oct-20 10:50 34.212962 -119.084605 0 78ft 0kts
24-Oct-20 10:51 34.213508 -119.084624 337 78ft 6kts
24-Oct-20 10:52 34.213838 -119.107659 271 639ft 117kts
24-Oct-20 10:53 34.227247 -119.113996 84 2365ft 125kts
24-Oct-20 10:54 34.230081 -119.064668 82 3254ft 159kts
24-Oct-20 10:55 34.237977 -119.013195 84 4254ft 154kts
24-Oct-20 10:56 34.243858 -118.962476 77 5255ft 153kts
24-Oct-20 10:57 34.253432 -118.907388 77 5499ft 179kts
24-Oct-20 10:58 34.263597 -118.848887 77 5500ft 177kts
24-Oct-20 10:59 34.273688 -118.790758 77 5501ft 177kts
24-Oct-20 11:00 34.283783 -118.732315 77 5500ft 177kts
24-Oct-20 11:01 34.293794 -118.674428 77 5502ft 177kts
24-Oct-20 11:02 34.284510 -118.617702 128 5499ft 176kts
24-Oct-20 11:03 34.244285 -118.584849 147 5499ft 175kts
24-Oct-20 11:04 34.200018 -118.562123 159 5498ft 161kts
24-Oct-20 11:05 34.208147 -118.553843 241 5481ft 136kts
24-Oct-20 11:06 34.206794 -118.549382 262 5557ft 137kts
24-Oct-20 11:07 34.171805 -118.549266 147 5512ft 145kts
24-Oct-20 11:08 34.134780 -118.530220 159 5500ft 144kts
24-Oct-20 11:09 34.097654 -118.511983 161 5503ft 145kts
24-Oct-20 11:10 34.056379 -118.491982 159 5499ft 172kts
24-Oct-20 11:11 34.011403 -118.470087 159 5500ft 176kts
24-Oct-20 11:12 33.966013 -118.447991 159 5500ft 176kts
24-Oct-20 11:13 33.920402 -118.425737 158 5502ft 176kts
24-Oct-20 11:14 33.888792 -118.383798 140 5500ft 177kts
24-Oct-20 11:15 33.852187 -118.344360 139 5501ft 177kts
24-Oct-20 11:16 33.815451 -118.304669 139 5501ft 177kts
24-Oct-20 11:17 33.778814 -118.265112 139 5502ft 177kts
24-Oct-20 11:18 33.742055 -118.225435 139 5501ft 177kts
24-Oct-20 11:19 33.705153 -118.185663 139 5501ft 178kts
24-Oct-20 11:20 33.668174 -118.145844 139 5501ft 178kts
24-Oct-20 11:21 33.631094 -118.105926 139 5501ft 178kts
24-Oct-20 11:22 33.591759 -118.069782 140 5501ft 178kts
24-Oct-20 11:23 33.557552 -118.026858 128 5501ft 179kts
24-Oct-20 11:24 33.527131 -117.979363 128 5501ft 179kts
24-Oct-20 11:25 33.496709 -117.932023 128 5501ft 179kts
24-Oct-20 11:26 33.466327 -117.884882 128 5502ft 179kts
24-Oct-20 11:27 33.440846 -117.833428 120 5500ft 179kts
24-Oct-20 11:28 33.416081 -117.781472 120 5502ft 179kts
24-Oct-20 11:29 33.391250 -117.729536 120 5501ft 179kts
24-Oct-20 11:30 33.366394 -117.677574 120 5501ft 179kts
24-Oct-20 11:31 33.341531 -117.625753 120 5502ft 179kts
24-Oct-20 11:32 33.314933 -117.575484 130 5501ft 179kts
24-Oct-20 11:33 33.282472 -117.530011 134 5501ft 179kts
24-Oct-20 11:34 33.246653 -117.488261 136 5500ft 179kts
24-Oct-20 11:35 33.208793 -117.449440 142 5501ft 179kts
24-Oct-20 11:36 33.166858 -117.414777 148 5024ft 182kts
24-Oct-20 11:37 33.124135 -117.382619 148 4523ft 181kts
24-Oct-20 11:38 33.081457 -117.350367 148 4022ft 181kts
24-Oct-20 11:40 33.038323 -117.319035 155 3553ft 180kts
24-Oct-20 11:41 32.992932 -117.298853 162 3502ft 171kts
24-Oct-20 11:42 32.947914 -117.280899 162 3501ft 169kts
24-Oct-20 11:43 32.903102 -117.263311 169 3501ft 169kts
24-Oct-20 11:44 32.856724 -117.254786 172 3502ft 169kts
24-Oct-20 11:45 32.811804 -117.242462 163 3119ft 162kts
24-Oct-20 11:46 32.770596 -117.222732 145 2486ft 156kts
24-Oct-20 11:47 32.756405 -117.179999 105 2132ft 132kts
24-Oct-20 11:48 32.746322 -117.141386 137 1917ft 127kts
24-Oct-20 11:49 32.726584 -117.160539 276 701ft 110kts
24-Oct-20 11:50 32.733554 -117.189594 289 16ft 54kts
24-Oct-20 11:51 32.734871 -117.198343 147 18ft 0kts
24-Oct-20 11:52 32.734614 -117.198123 127 18ft 9kts
24-Oct-20 11:53 32.733293 -117.192785 106 14ft 22kts
24-Oct-20 11:54 32.733530 -117.188209 16 13ft 17kts
24-Oct-20 11:54 32.733156 -117.183292 106 14ft 27kts
24-Oct-20 11:56 32.733812 -117.178963 60 14ft 0kts
24-Oct-20 11:56 32.733812 -117.178963 60 14ft 0kts

Navigation Log

Ident Type
Flight plan parsing failed, navigation log unavailable